createdAt,value
2019-03-28T00:04:58.823Z,42.85
2019-03-28T00:10:02.737Z,42.90
2019-03-28T00:15:08.182Z,42.92
2019-03-28T00:20:12.046Z,42.91
2019-03-28T00:25:19.630Z,42.96
2019-03-28T00:30:23.097Z,43.04
2019-03-28T00:35:26.549Z,43.04
2019-03-28T00:40:30.276Z,43.06
2019-03-28T00:45:33.844Z,43.09
2019-03-28T00:50:37.303Z,43.07
2019-03-28T00:55:40.764Z,43.12
2019-03-28T01:00:44.227Z,43.16
2019-03-28T01:05:48.317Z,43.17
2019-03-28T01:10:51.776Z,43.18
2019-03-28T01:15:55.233Z,43.22
2019-03-28T01:20:58.692Z,43.22
2019-03-28T01:26:02.147Z,43.25
2019-03-28T01:31:05.605Z,43.27
2019-03-28T01:36:09.060Z,43.27
2019-03-28T01:41:12.524Z,43.35
2019-03-28T01:46:15.986Z,43.37
2019-03-28T01:51:19.449Z,43.34
2019-03-28T01:56:25.110Z,43.33
2019-03-28T02:01:28.126Z,43.38
2019-03-28T02:06:31.590Z,43.40
2019-03-28T02:11:35.058Z,43.40
2019-03-28T02:16:38.522Z,43.27
2019-03-28T02:21:41.988Z,43.43
2019-03-28T02:26:45.450Z,43.47
2019-03-28T02:31:48.907Z,43.46
2019-03-28T02:36:52.367Z,43.49
2019-03-28T02:41:55.820Z,43.50
2019-03-28T02:46:59.278Z,43.54
2019-03-28T02:52:02.773Z,43.54
2019-03-28T02:57:06.193Z,43.50
2019-03-28T03:02:09.650Z,43.53
2019-03-28T03:07:13.107Z,43.61
2019-03-28T03:12:16.562Z,43.62
2019-03-28T03:17:20.016Z,43.66
2019-03-28T03:22:23.474Z,43.64
2019-03-28T03:27:26.937Z,43.62
2019-03-28T03:32:30.397Z,43.69
2019-03-28T03:37:33.847Z,43.67
2019-03-28T03:42:37.374Z,43.65
2019-03-28T03:47:40.831Z,43.73
2019-03-28T03:52:44.295Z,43.75
2019-03-28T03:57:47.759Z,43.74
2019-03-28T04:02:51.236Z,43.77
2019-03-28T04:07:54.682Z,43.76
2019-03-28T04:12:58.168Z,43.73
2019-03-28T04:18:01.606Z,43.79
2019-03-28T04:23:05.066Z,43.79
2019-03-28T04:28:08.539Z,43.78
2019-03-28T04:33:12.081Z,43.81
2019-03-28T04:38:15.519Z,43.81
2019-03-28T04:43:18.986Z,43.84
2019-03-28T04:48:22.436Z,43.69
2019-03-28T04:53:25.902Z,43.59
2019-03-28T04:58:29.365Z,43.73
2019-03-28T05:03:32.822Z,43.89
2019-03-28T05:08:36.286Z,43.91
2019-03-28T05:13:39.750Z,44.13
2019-03-28T05:18:43.213Z,44.15
2019-03-28T05:23:46.676Z,44.15
2019-03-28T05:28:57.531Z,44.31
2019-03-28T05:33:55.311Z,44.29
2019-03-28T05:38:58.800Z,44.26
2019-03-28T05:44:02.287Z,44.39
2019-03-28T05:49:05.739Z,44.33
2019-03-28T05:54:09.230Z,44.37
2019-03-28T05:59:12.709Z,44.38
2019-03-28T06:04:16.183Z,44.41
2019-03-28T06:09:19.667Z,44.42
2019-03-28T06:14:23.146Z,44.45
2019-03-28T06:19:26.632Z,44.44
2019-03-28T06:24:30.100Z,44.47
2019-03-28T06:29:33.575Z,44.45
2019-03-28T06:34:37.045Z,44.47
2019-03-28T06:39:40.518Z,44.42
2019-03-28T06:44:43.992Z,44.47
2019-03-28T06:49:47.450Z,44.44
2019-03-28T06:54:50.925Z,44.46
2019-03-28T06:59:54.387Z,44.42
2019-03-28T07:04:57.844Z,44.45
2019-03-28T07:10:02.587Z,44.39
2019-03-28T07:15:08.149Z,44.46
2019-03-28T07:20:12.049Z,44.44
2019-03-28T07:25:15.503Z,44.47
2019-03-28T07:30:19.658Z,44.40
2019-03-28T07:35:23.162Z,44.45
2019-03-28T07:40:26.697Z,44.49
2019-03-28T07:45:30.153Z,44.44
2019-03-28T07:50:33.682Z,40.08
2019-03-28T07:55:37.146Z,39.55
2019-03-28T08:00:40.603Z,39.93
2019-03-28T08:05:44.060Z,40.92
2019-03-28T08:10:47.541Z,41.24
2019-03-28T08:15:51.023Z,42.20
2019-03-28T08:20:54.493Z,42.67
2019-03-28T08:25:57.976Z,42.92
2019-03-28T08:31:01.721Z,42.30
2019-03-28T08:36:05.609Z,42.19
2019-03-28T08:41:09.083Z,42.14
2019-03-28T08:46:12.560Z,42.25
2019-03-28T08:51:16.039Z,42.26
2019-03-28T08:56:19.516Z,42.29
2019-03-28T09:01:23.904Z,42.27
2019-03-28T09:06:27.366Z,42.22
2019-03-28T09:11:30.842Z,42.19
2019-03-28T09:16:34.318Z,42.18
2019-03-28T09:21:37.804Z,42.22
2019-03-28T09:26:41.285Z,42.29
2019-03-28T09:31:44.762Z,42.40
2019-03-28T09:36:48.241Z,42.41
2019-03-28T09:41:51.712Z,42.79
2019-03-28T09:46:55.844Z,42.91
2019-03-28T09:51:59.840Z,43.19
2019-03-28T09:57:03.311Z,43.05
2019-03-28T10:02:06.791Z,43.06
2019-03-28T10:07:10.264Z,43.12
2019-03-28T10:12:13.747Z,43.28
2019-03-28T10:17:17.224Z,43.39
2019-03-28T10:22:22.330Z,43.45
2019-03-28T10:27:26.057Z,43.42
2019-03-28T10:32:29.539Z,43.38
2019-03-28T10:37:33.018Z,43.42
2019-03-28T10:42:36.487Z,43.54
2019-03-28T10:47:40.040Z,43.91
2019-03-28T10:52:43.518Z,44.40
2019-03-28T10:57:46.992Z,45.08
2019-03-28T11:02:50.540Z,45.32
2019-03-28T11:07:54.041Z,45.59
2019-03-28T11:12:57.516Z,46.16
2019-03-28T11:18:00.987Z,46.16
2019-03-28T11:23:04.463Z,46.09
2019-03-28T11:28:07.993Z,46.07
2019-03-28T11:33:11.417Z,45.90
2019-03-28T11:38:14.888Z,46.78
2019-03-28T11:43:18.364Z,46.69
2019-03-28T11:48:21.840Z,46.53
2019-03-28T11:53:25.321Z,46.64
2019-03-28T11:58:28.787Z,46.62
2019-03-28T12:03:32.260Z,47.07
2019-03-28T12:08:35.732Z,47.21
2019-03-28T12:13:44.977Z,47.30
2019-03-28T12:18:44.414Z,47.58
2019-03-28T12:23:47.902Z,47.66
2019-03-28T12:28:51.365Z,47.78
2019-03-28T12:33:54.841Z,47.67
2019-03-28T12:38:58.315Z,47.57
2019-03-28T12:44:01.784Z,47.74
2019-03-28T12:49:05.265Z,47.70
2019-03-28T12:54:10.063Z,47.44
2019-03-28T12:59:14.704Z,47.68
2019-03-28T13:04:18.562Z,47.71
2019-03-28T13:09:22.049Z,47.72
2019-03-28T13:14:25.519Z,47.39
2019-03-28T13:19:28.989Z,47.66
2019-03-28T13:24:32.446Z,47.53
2019-03-28T13:29:35.904Z,47.61
2019-03-28T13:34:39.361Z,47.57
2019-03-28T13:39:43.669Z,47.63
2019-03-28T13:44:47.127Z,47.63
2019-03-28T13:49:50.584Z,47.40
2019-03-28T13:54:54.049Z,47.29
2019-03-28T13:59:57.503Z,47.23
2019-03-28T14:05:00.962Z,47.27
2019-03-28T14:10:07.561Z,47.32
2019-03-28T14:15:11.729Z,47.31
2019-03-28T14:20:15.829Z,47.32
2019-03-28T14:25:19.288Z,47.26
2019-03-28T14:30:22.752Z,47.39
2019-03-28T14:35:26.208Z,47.34
2019-03-28T14:40:29.736Z,47.45
2019-03-28T14:45:33.192Z,47.37
2019-03-28T14:50:38.383Z,47.40
2019-03-28T14:55:41.848Z,47.32
2019-03-28T15:00:53.433Z,47.07
2019-03-28T15:05:56.861Z,46.82
2019-03-28T15:11:01.017Z,46.70
2019-03-28T15:16:04.995Z,46.39
2019-03-28T15:21:08.453Z,45.98
2019-03-28T15:26:11.939Z,45.75
2019-03-28T15:31:15.373Z,45.85
2019-03-28T15:36:18.837Z,45.83
2019-03-28T15:41:22.311Z,45.76
2019-03-28T15:46:25.870Z,45.75
2019-03-28T15:51:29.324Z,45.78
2019-03-28T15:56:32.870Z,45.80
2019-03-28T16:01:36.334Z,46.05
2019-03-28T16:06:39.798Z,46.42
2019-03-28T16:11:43.265Z,46.24
2019-03-28T16:16:46.723Z,46.16
2019-03-28T16:21:50.258Z,46.14
2019-03-28T16:26:53.789Z,46.34
2019-03-28T16:31:57.249Z,46.74
2019-03-28T16:37:01.725Z,47.22
2019-03-28T16:42:05.449Z,47.17
2019-03-28T16:47:08.916Z,47.06
2019-03-28T16:52:12.377Z,46.79
2019-03-28T16:57:15.838Z,46.74
2019-03-28T17:02:19.311Z,46.55
2019-03-28T17:07:25.647Z,46.40
2019-03-28T17:12:29.152Z,46.30
2019-03-28T17:17:32.616Z,46.21
2019-03-28T17:22:36.082Z,46.93
2019-03-28T17:27:39.551Z,47.87
2019-03-28T17:32:43.089Z,48.47
2019-03-28T17:37:46.553Z,48.54
2019-03-28T17:42:50.189Z,48.42
2019-03-28T17:47:53.853Z,48.33
2019-03-28T17:52:57.379Z,48.26
2019-03-28T17:58:00.847Z,48.06
2019-03-28T18:03:09.576Z,48.32
2019-03-28T18:08:09.502Z,48.57
2019-03-28T18:13:12.965Z,48.43
2019-03-28T18:18:16.429Z,48.30
2019-03-28T18:23:19.887Z,48.36
2019-03-28T18:28:23.340Z,48.01
2019-03-28T18:33:27.583Z,47.54
2019-03-28T18:38:31.097Z,47.25
2019-03-28T18:43:34.602Z,47.05
2019-03-28T18:48:38.490Z,46.69
2019-03-28T18:53:42.088Z,46.60
2019-03-28T18:58:45.549Z,46.42
2019-03-28T19:03:49.014Z,46.25
2019-03-28T19:08:53.655Z,46.02
2019-03-28T19:13:57.216Z,45.84
2019-03-28T19:19:00.681Z,45.74
2019-03-28T19:24:04.307Z,45.50
2019-03-28T19:29:07.774Z,45.62
2019-03-28T19:34:11.236Z,45.54
2019-03-28T19:39:17.739Z,45.52
2019-03-28T19:44:21.270Z,45.52
2019-03-28T19:49:24.730Z,45.59
2019-03-28T19:54:28.190Z,45.61
2019-03-28T19:59:31.651Z,45.64
2019-03-28T20:04:35.115Z,45.71
2019-03-28T20:09:38.572Z,45.82
2019-03-28T20:14:42.034Z,45.87
2019-03-28T20:19:45.496Z,45.92
2019-03-28T20:24:48.952Z,45.93
2019-03-28T20:29:52.409Z,46.00
2019-03-28T20:34:56.202Z,46.02
2019-03-28T20:39:59.876Z,46.07
2019-03-28T20:45:03.616Z,46.16
2019-03-28T20:50:07.718Z,46.18
2019-03-28T20:55:11.160Z,46.21
2019-03-28T21:00:15.463Z,46.29
2019-03-28T21:05:18.915Z,46.29
2019-03-28T21:10:25.908Z,46.27
2019-03-28T21:15:29.363Z,46.26
2019-03-28T21:20:32.826Z,46.38
2019-03-28T21:25:36.284Z,46.49
2019-03-28T21:30:47.150Z,46.50
2019-03-28T21:35:44.936Z,46.68
2019-03-28T21:40:48.390Z,46.80
2019-03-28T21:45:51.854Z,46.85
2019-03-28T21:50:55.312Z,46.89
2019-03-28T21:55:58.767Z,46.92
2019-03-28T22:01:02.223Z,46.95
2019-03-28T22:06:05.683Z,46.95
2019-03-28T22:11:09.144Z,47.04
2019-03-28T22:16:12.604Z,47.00
2019-03-28T22:21:16.070Z,47.00
2019-03-28T22:26:19.538Z,47.01
2019-03-28T22:31:22.994Z,47.04
2019-03-28T22:36:26.453Z,47.04
2019-03-28T22:41:29.916Z,47.04
2019-03-28T22:46:33.371Z,47.07
2019-03-28T22:51:36.828Z,47.04
2019-03-28T22:56:40.288Z,47.02
2019-03-28T23:01:43.745Z,47.02
2019-03-28T23:06:47.206Z,47.01
2019-03-28T23:11:50.667Z,47.00
2019-03-28T23:16:54.887Z,46.97
2019-03-28T23:21:58.563Z,47.00
2019-03-28T23:27:02.028Z,47.03
2019-03-28T23:32:05.488Z,46.97
2019-03-28T23:37:08.958Z,47.00
2019-03-28T23:42:12.454Z,46.97
2019-03-28T23:47:16.746Z,46.98
2019-03-28T23:52:20.210Z,46.99
2019-03-28T23:57:24.004Z,47.00
